Time;durP1;ratioP1;P1;durP2;ratioP2;P2;SDS_P1;SDS_P2;PMS_P1;PMS_P2;Temp;Humidity;BMP_temperature;BMP_pressure;BME280_temperature;BME280_humidity;BME280_pressure;Samples;Min_cycle;Max_cycle;Signal;HPM_P1;HPM_P2
2022/03/03 00:02:07;;;;;;;17.10;15.30;;;5.60;99.90;;;;;;5115671;28;20187;-58
2022/03/03 00:04:32;;;;;;;21.48;16.02;;;5.60;99.90;;;;;;5115850;28;20207;-58
2022/03/03 00:06:58;;;;;;;18.45;15.98;;;5.50;99.90;;;;;;5115653;28;20172;-61
2022/03/03 00:09:24;;;;;;;19.98;16.05;;;5.50;99.90;;;;;;5116011;28;20176;-58
2022/03/03 00:11:49;;;;;;;20.02;16.23;;;5.50;99.90;;;;;;5115621;28;20177;-58
2022/03/03 00:14:15;;;;;;;19.15;16.02;;;5.40;99.90;;;;;;5115606;28;20267;-58
2022/03/03 00:16:41;;;;;;;20.35;16.63;;;5.40;99.90;;;;;;5114061;28;20180;-58
2022/03/03 00:19:06;;;;;;;20.42;16.30;;;5.30;99.90;;;;;;5115115;28;20624;-58
2022/03/03 00:21:32;;;;;;;19.75;15.52;;;5.20;99.90;;;;;;5115467;28;20229;-59
2022/03/03 00:23:58;;;;;;;17.67;15.45;;;5.40;99.90;;;;;;5114168;28;20211;-58
2022/03/03 00:26:24;;;;;;;22.55;16.52;;;5.40;99.90;;;;;;5114210;28;20267;-58
2022/03/03 00:28:49;;;;;;;20.40;16.50;;;5.40;99.90;;;;;;5115501;28;20668;-58
2022/03/03 00:31:15;;;;;;;20.27;15.82;;;5.20;99.90;;;;;;5115130;28;20699;-58
2022/03/03 00:33:41;;;;;;;17.75;15.43;;;5.30;99.90;;;;;;5115282;28;20223;-58
2022/03/03 00:36:06;;;;;;;21.63;16.85;;;5.30;99.90;;;;;;5115324;28;20251;-58
2022/03/03 00:38:32;;;;;;;23.70;17.02;;;5.30;99.90;;;;;;5115179;28;20717;-58
2022/03/03 00:40:58;;;;;;;20.75;16.58;;;5.30;99.90;;;;;;5114951;28;20177;-58
2022/03/03 00:43:23;;;;;;;21.83;16.40;;;5.30;99.90;;;;;;5114371;28;20203;-58
2022/03/03 00:45:49;;;;;;;20.13;16.30;;;5.40;99.90;;;;;;5114856;28;20183;-60
2022/03/03 00:48:15;;;;;;;22.33;16.60;;;5.40;99.90;;;;;;5115050;28;20181;-58
2022/03/03 00:50:40;;;;;;;20.38;16.75;;;5.40;99.90;;;;;;5115100;28;20562;-58
2022/03/03 00:53:06;;;;;;;19.88;16.10;;;5.40;99.90;;;;;;5114904;28;20514;-58
2022/03/03 00:55:32;;;;;;;20.42;16.60;;;5.40;99.90;;;;;;5114768;28;20653;-58
2022/03/03 00:57:57;;;;;;;21.10;16.73;;;5.40;99.90;;;;;;5114746;28;20187;-58
2022/03/03 01:00:23;;;;;;;19.70;16.08;;;5.40;99.90;;;;;;5114656;28;20181;-58
2022/03/03 01:02:50;;;;;;;22.10;17.60;;;5.40;99.90;;;;;;5113084;28;20207;-58
2022/03/03 01:05:16;;;;;;;19.40;16.60;;;5.40;99.90;;;;;;5114480;28;20184;-58
2022/03/03 01:07:42;;;;;;;21.35;16.80;;;5.30;99.90;;;;;;5114512;28;20169;-58
2022/03/03 01:10:09;;;;;;;23.30;16.88;;;5.30;99.90;;;;;;5114539;28;20179;-58
2022/03/03 01:12:35;;;;;;;20.90;16.83;;;5.20;99.90;;;;;;5114313;28;20172;-58
2022/03/03 01:15:06;;;;;;;20.17;17.07;;;5.30;99.90;;;;;;5114244;28;20225;-60
2022/03/03 01:17:32;;;;;;;22.33;17.23;;;5.20;99.90;;;;;;5114824;28;20710;-58
2022/03/03 01:19:58;;;;;;;20.00;16.57;;;5.20;99.90;;;;;;5114158;28;20193;-58
2022/03/03 01:22:24;;;;;;;22.77;17.23;;;5.10;99.90;;;;;;5114191;28;20613;-58
2022/03/03 01:24:49;;;;;;;20.63;17.03;;;5.10;99.90;;;;;;5114234;28;20294;-59
2022/03/03 01:27:15;;;;;;;21.23;16.25;;;5.10;99.90;;;;;;5114172;28;20546;-60
2022/03/03 01:29:41;;;;;;;20.27;16.80;;;5.10;99.90;;;;;;5114010;28;20164;-58
2022/03/03 01:32:07;;;;;;;20.58;17.63;;;5.10;99.90;;;;;;5114212;28;20606;-61
2022/03/03 01:34:37;;;;;;;22.08;17.85;;;5.00;99.90;;;;;;5114035;28;20181;-60
2022/03/03 01:37:03;;;;;;;20.45;17.23;;;5.00;99.90;;;;;;5114054;28;20173;-60
2022/03/03 01:39:29;;;;;;;20.85;16.48;;;5.00;99.90;;;;;;5114003;28;20200;-59
2022/03/03 01:41:55;;;;;;;22.70;17.08;;;5.00;99.90;;;;;;5113769;28;20203;-59
2022/03/03 01:44:21;;;;;;;22.50;17.83;;;5.00;99.90;;;;;;5113642;28;20207;-59
2022/03/03 01:46:57;;;;;;;19.27;16.90;;;5.00;99.90;;;;;;5113818;28;20199;-59
2022/03/03 01:49:25;;;;;;;20.00;16.83;;;4.90;99.90;;;;;;5114039;28;20193;-59
2022/03/03 01:51:52;;;;;;;20.73;17.13;;;4.90;99.90;;;;;;5113916;28;20184;-59
2022/03/03 01:54:18;;;;;;;20.37;16.80;;;5.00;99.90;;;;;;5112743;28;20672;-60
2022/03/03 01:56:46;;;;;;;21.37;17.60;;;4.80;99.90;;;;;;5113673;28;20180;-60
2022/03/03 01:59:14;;;;;;;21.20;17.37;;;4.70;99.90;;;;;;5113690;28;20176;-59
2022/03/03 02:01:41;;;;;;;21.47;17.40;;;4.70;99.90;;;;;;5113836;28;20169;-59
2022/03/03 02:04:08;;;;;;;19.20;17.02;;;4.70;99.90;;;;;;5113754;28;20211;-59
2022/03/03 02:06:35;;;;;;;20.23;16.92;;;4.70;99.90;;;;;;5113614;28;20184;-60
2022/03/03 02:09:01;;;;;;;21.30;17.43;;;4.70;99.90;;;;;;5113665;28;20225;-59
2022/03/03 02:11:27;;;;;;;20.00;16.90;;;4.70;99.90;;;;;;5113396;28;20182;-59
2022/03/03 02:13:54;;;;;;;23.93;17.87;;;4.70;99.90;;;;;;5112466;28;20184;-59
2022/03/03 02:16:21;;;;;;;19.90;16.90;;;4.80;99.90;;;;;;5113674;28;20216;-60
2022/03/03 02:18:50;;;;;;;23.50;18.02;;;4.70;99.90;;;;;;5113152;28;20235;-60
2022/03/03 02:21:16;;;;;;;24.10;16.83;;;4.60;99.90;;;;;;5113559;28;20267;-60
2022/03/03 02:23:43;;;;;;;21.20;17.20;;;4.70;99.90;;;;;;5113261;28;20295;-59
2022/03/03 02:26:15;;;;;;;21.87;17.30;;;4.60;99.90;;;;;;5113674;28;20522;-60
2022/03/03 02:28:42;;;;;;;20.33;17.03;;;4.60;99.90;;;;;;5112395;28;20177;-59
2022/03/03 02:31:08;;;;;;;24.10;18.25;;;4.60;99.90;;;;;;5113584;28;20168;-59
2022/03/03 02:33:34;;;;;;;21.23;17.57;;;4.70;99.90;;;;;;5113371;28;20187;-59
2022/03/03 02:36:34;;;;;;;23.60;16.63;;;4.60;99.90;;;;;;5113331;28;20177;-59
2022/03/03 02:39:03;;;;;;;20.58;17.08;;;4.60;99.90;;;;;;5050456;28;20186;-59
2022/03/03 02:41:29;;;;;;;20.87;17.17;;;4.60;99.90;;;;;;5101408;28;20189;-60
2022/03/03 02:43:56;;;;;;;23.13;18.10;;;4.60;99.90;;;;;;5113198;28;20288;-59
2022/03/03 02:46:22;;;;;;;22.97;17.07;;;4.60;99.90;;;;;;5113370;28;20180;-60
2022/03/03 02:48:48;;;;;;;25.13;18.47;;;4.60;99.90;;;;;;5113162;28;20181;-60
2022/03/03 02:51:14;;;;;;;21.30;17.67;;;4.60;99.90;;;;;;5113302;28;20180;-59
2022/03/03 02:53:40;;;;;;;24.07;17.97;;;4.60;99.90;;;;;;5112132;28;20184;-59
2022/03/03 02:56:07;;;;;;;19.97;16.47;;;4.50;99.90;;;;;;5113308;28;20181;-60
2022/03/03 02:58:32;;;;;;;24.17;16.87;;;4.50;99.90;;;;;;5113107;28;20234;-60
2022/03/03 03:00:59;;;;;;;22.35;17.27;;;4.40;99.90;;;;;;5113343;28;20181;-59
2022/03/03 03:03:25;;;;;;;22.63;18.47;;;4.40;99.90;;;;;;5112928;28;20213;-60
2022/03/03 03:05:51;;;;;;;21.80;17.33;;;4.50;99.90;;;;;;5115278;28;20643;-59
2022/03/03 03:08:17;;;;;;;23.50;17.63;;;4.40;99.90;;;;;;5116998;28;20197;-59
2022/03/03 03:10:42;;;;;;;21.83;17.47;;;4.40;99.90;;;;;;5116824;28;20534;-59
2022/03/03 03:13:11;;;;;;;25.10;18.35;;;4.30;99.90;;;;;;5116712;28;20210;-59
2022/03/03 03:15:37;;;;;;;23.10;17.50;;;4.20;99.90;;;;;;5116752;28;20623;-59
2022/03/03 03:18:14;;;;;;;23.30;16.50;;;4.30;99.90;;;;;;5098631;28;20184;-59
2022/03/03 03:20:41;;;;;;;23.20;17.47;;;4.30;99.90;;;;;;5116776;28;20188;-59
2022/03/03 03:23:09;;;;;;;21.23;16.07;;;4.30;99.90;;;;;;5116414;28;20212;-58
2022/03/03 03:25:37;;;;;;;23.17;17.50;;;4.40;99.90;;;;;;5116601;28;20188;-59
2022/03/03 03:28:05;;;;;;;22.73;17.50;;;4.40;99.90;;;;;;5116491;28;20548;-59
2022/03/03 03:30:31;;;;;;;23.90;16.80;;;4.30;99.90;;;;;;5116340;28;20215;-59
2022/03/03 03:32:57;;;;;;;21.53;17.47;;;4.20;99.90;;;;;;5116538;28;20177;-59
2022/03/03 03:35:23;;;;;;;23.03;18.00;;;4.20;99.90;;;;;;5116379;28;20229;-59
2022/03/03 03:37:49;;;;;;;20.03;17.23;;;4.20;99.90;;;;;;5116222;28;20634;-59
2022/03/03 03:40:16;;;;;;;19.70;16.60;;;4.10;99.90;;;;;;5116147;28;20203;-59
2022/03/03 03:42:41;;;;;;;22.57;17.23;;;4.00;99.90;;;;;;5116054;28;20479;-59
2022/03/03 03:45:08;;;;;;;22.60;17.33;;;3.90;99.90;;;;;;5115944;28;20219;-59
2022/03/03 03:47:34;;;;;;;23.40;17.43;;;4.00;99.90;;;;;;5116199;28;20172;-59
2022/03/03 03:50:02;;;;;;;22.47;16.73;;;3.90;99.90;;;;;;5115399;28;20196;-59
2022/03/03 03:52:28;;;;;;;25.37;16.67;;;3.80;99.90;;;;;;5116103;28;20183;-59
2022/03/03 03:54:54;;;;;;;21.97;16.30;;;3.90;99.90;;;;;;5115884;28;20711;-59
2022/03/03 03:57:20;;;;;;;21.60;16.58;;;3.90;99.90;;;;;;5115912;28;20184;-59
2022/03/03 03:59:46;;;;;;;21.27;17.17;;;3.90;99.90;;;;;;5115758;28;20225;-59
2022/03/03 04:02:11;;;;;;;22.03;16.97;;;3.80;99.90;;;;;;5116058;28;20681;-60
2022/03/03 04:04:40;;;;;;;22.37;17.77;;;3.90;99.90;;;;;;5115782;28;20216;-59
2022/03/03 04:07:06;;;;;;;23.90;17.50;;;3.80;99.90;;;;;;5115471;28;20179;-60
2022/03/03 04:09:31;;;;;;;20.50;17.63;;;3.80;99.90;;;;;;5115619;28;20267;-59
2022/03/03 04:11:57;;;;;;;22.43;17.27;;;3.90;99.90;;;;;;5097357;28;20241;-59
2022/03/03 04:14:23;;;;;;;20.57;16.80;;;3.90;99.90;;;;;;5115703;28;20645;-59
2022/03/03 04:16:48;;;;;;;21.83;16.63;;;3.90;99.90;;;;;;5114477;28;20566;-59
2022/03/03 04:19:14;;;;;;;19.87;16.33;;;3.80;99.90;;;;;;5115499;28;20283;-59
2022/03/03 04:21:40;;;;;;;22.63;17.60;;;3.80;99.90;;;;;;5115680;28;20180;-59
2022/03/03 04:24:07;;;;;;;23.20;17.10;;;3.80;99.90;;;;;;5114140;28;20204;-59
2022/03/03 04:26:34;;;;;;;20.70;16.90;;;3.90;99.90;;;;;;5115367;28;20597;-59
2022/03/03 04:29:00;;;;;;;25.53;17.27;;;3.90;99.90;;;;;;5114153;28;20176;-59
2022/03/03 04:31:27;;;;;;;22.23;16.33;;;4.00;99.90;;;;;;5115453;28;20201;-59
2022/03/03 04:33:53;;;;;;;21.83;17.47;;;4.00;99.90;;;;;;5115315;28;20177;-59
2022/03/03 04:36:18;;;;;;;20.70;17.03;;;4.00;99.90;;;;;;5115209;28;20301;-59
2022/03/03 04:38:47;;;;;;;22.00;17.00;;;4.00;99.90;;;;;;5114967;28;20633;-59
2022/03/03 04:41:13;;;;;;;22.90;17.03;;;3.90;99.90;;;;;;5114963;27;20231;-59
2022/03/03 04:43:39;;;;;;;19.33;15.73;;;3.90;99.90;;;;;;5115026;28;20302;-59
2022/03/03 04:46:05;;;;;;;26.47;16.87;;;3.80;99.90;;;;;;5115001;28;20216;-59
2022/03/03 04:48:30;;;;;;;22.77;16.87;;;3.80;99.90;;;;;;5114675;28;20242;-59
2022/03/03 04:50:59;;;;;;;20.90;16.90;;;3.70;99.90;;;;;;5114873;28;20280;-59
2022/03/03 04:53:25;;;;;;;23.20;17.00;;;3.60;99.90;;;;;;5114809;28;20242;-60
2022/03/03 04:55:51;;;;;;;22.67;15.90;;;3.60;99.90;;;;;;5114672;28;20280;-59
2022/03/03 04:58:17;;;;;;;21.40;16.60;;;3.60;99.90;;;;;;5114691;28;20178;-59
2022/03/03 05:00:43;;;;;;;23.73;16.73;;;3.60;99.90;;;;;;5114806;28;20180;-59
2022/03/03 05:03:09;;;;;;;22.43;17.03;;;3.60;99.90;;;;;;5114688;28;20210;-59
2022/03/03 05:05:35;;;;;;;24.53;16.67;;;3.50;99.90;;;;;;5113448;28;20196;-59
2022/03/03 05:08:00;;;;;;;24.43;18.10;;;3.40;99.90;;;;;;5114412;28;20181;-59
2022/03/03 05:10:27;;;;;;;23.67;17.07;;;3.40;99.90;;;;;;5112863;28;20268;-58
2022/03/03 05:12:52;;;;;;;24.90;19.47;;;3.20;99.90;;;;;;5114854;28;20181;-59
2022/03/03 05:15:18;;;;;;;30.47;20.67;;;3.10;99.90;;;;;;5114497;28;20196;-60
2022/03/03 05:17:44;;;;;;;24.53;19.80;;;3.20;99.90;;;;;;5113228;28;20172;-60
2022/03/03 05:20:10;;;;;;;23.77;18.20;;;3.20;99.90;;;;;;5114041;28;20196;-59
2022/03/03 05:22:35;;;;;;;24.13;18.33;;;3.20;99.90;;;;;;5114113;28;20184;-59
2022/03/03 05:25:01;;;;;;;22.20;17.90;;;3.20;99.90;;;;;;5114015;28;20200;-60
2022/03/03 05:27:27;;;;;;;21.73;17.67;;;3.20;99.90;;;;;;5113292;28;20180;-60
2022/03/03 05:29:53;;;;;;;23.87;17.07;;;3.30;99.90;;;;;;5114301;28;20541;-59
2022/03/03 05:32:19;;;;;;;23.93;18.10;;;3.40;99.90;;;;;;5114194;28;20184;-60
2022/03/03 05:34:44;;;;;;;48.13;34.73;;;3.30;99.90;;;;;;5113897;28;20266;-58
2022/03/03 05:37:10;;;;;;;142.27;98.77;;;3.50;99.90;;;;;;5113793;28;20178;-60
2022/03/03 05:39:37;;;;;;;117.57;71.33;;;3.40;99.90;;;;;;5112636;28;20179;-57
2022/03/03 05:42:03;;;;;;;215.93;114.93;;;3.30;99.90;;;;;;5114067;27;20208;-60
2022/03/03 05:44:30;;;;;;;160.67;101.87;;;3.30;99.90;;;;;;5113942;28;20243;-58
2022/03/03 05:46:56;;;;;;;127.70;93.50;;;3.20;99.90;;;;;;5112668;28;20180;-59
2022/03/03 05:49:22;;;;;;;54.10;41.33;;;3.20;99.90;;;;;;5113947;28;20180;-59
2022/03/03 05:51:49;;;;;;;107.43;78.70;;;3.30;99.90;;;;;;5113781;28;20584;-60
2022/03/03 05:54:14;;;;;;;59.23;44.70;;;3.20;99.90;;;;;;5113565;28;20192;-58
2022/03/03 05:56:45;;;;;;;29.27;23.73;;;3.10;99.90;;;;;;5113269;28;20176;-60
2022/03/03 05:59:14;;;;;;;25.50;19.50;;;3.00;99.90;;;;;;5112559;28;20206;-57
2022/03/03 06:01:42;;;;;;;23.90;17.80;;;3.10;99.90;;;;;;5113815;28;20534;-61
2022/03/03 06:04:10;;;;;;;22.37;17.93;;;3.20;99.90;;;;;;5113542;28;20670;-60
2022/03/03 06:06:37;;;;;;;24.27;18.03;;;3.20;99.90;;;;;;5113247;28;20178;-60
2022/03/03 06:09:07;;;;;;;24.33;19.13;;;3.10;99.90;;;;;;5112679;28;20180;-58
2022/03/03 06:11:36;;;;;;;24.20;18.47;;;3.10;99.90;;;;;;5113507;28;20180;-58
2022/03/03 06:14:15;;;;;;;24.43;17.47;;;3.20;99.90;;;;;;5113551;28;20179;-58
2022/03/03 06:16:42;;;;;;;30.20;18.00;;;3.20;99.90;;;;;;5113569;28;20175;-58
2022/03/03 06:19:08;;;;;;;26.60;18.07;;;3.30;99.90;;;;;;5112719;28;20278;-58
2022/03/03 06:21:34;;;;;;;23.07;17.40;;;3.20;99.90;;;;;;5113338;28;20586;-59
2022/03/03 06:24:00;;;;;;;20.97;16.30;;;3.20;99.90;;;;;;5113577;28;20239;-58
2022/03/03 06:26:25;;;;;;;21.83;17.23;;;3.10;99.90;;;;;;5113133;28;20268;-59
2022/03/03 06:28:52;;;;;;;22.77;17.07;;;3.20;99.90;;;;;;5112092;28;20229;-58
2022/03/03 06:31:18;;;;;;;26.97;18.07;;;3.30;99.90;;;;;;5113350;28;20235;-58
2022/03/03 06:33:44;;;;;;;22.30;16.60;;;3.20;99.90;;;;;;5113256;28;20184;-59
2022/03/03 06:36:09;;;;;;;23.30;17.60;;;3.30;99.90;;;;;;5113492;28;20204;-58
2022/03/03 06:38:35;;;;;;;25.53;18.30;;;3.40;99.90;;;;;;5112284;28;20177;-58
2022/03/03 06:41:02;;;;;;;22.67;18.10;;;3.40;99.90;;;;;;5114913;28;20184;-59
2022/03/03 06:43:29;;;;;;;23.87;17.27;;;3.50;99.90;;;;;;5117124;28;20302;-58
2022/03/03 06:45:56;;;;;;;22.40;17.80;;;3.50;99.90;;;;;;5116063;28;20280;-58
2022/03/03 06:48:22;;;;;;;25.10;18.80;;;3.40;99.90;;;;;;5117167;28;20251;-58
2022/03/03 06:50:51;;;;;;;23.27;18.30;;;3.50;99.90;;;;;;5117564;28;20188;-58
2022/03/03 06:53:20;;;;;;;25.03;17.40;;;3.60;99.90;;;;;;5117225;28;20626;-58
2022/03/03 06:55:49;;;;;;;23.83;17.47;;;3.60;99.90;;;;;;5117034;28;20211;-58
2022/03/03 06:58:17;;;;;;;22.67;17.80;;;3.60;99.90;;;;;;5117031;28;20584;-58
2022/03/03 07:00:51;;;;;;;23.13;17.20;;;3.70;99.90;;;;;;5116933;28;20623;-59
2022/03/03 07:03:17;;;;;;;23.20;16.67;;;3.80;99.90;;;;;;5117066;28;20279;-58
2022/03/03 07:05:42;;;;;;;22.37;15.93;;;3.80;99.90;;;;;;5116876;28;20187;-58
2022/03/03 07:08:10;;;;;;;18.93;14.60;;;3.70;99.90;;;;;;5116944;28;20181;-58
2022/03/03 07:10:37;;;;;;;22.57;16.43;;;3.80;99.90;;;;;;5115635;28;20179;-58
2022/03/03 07:13:02;;;;;;;21.77;16.00;;;3.80;99.90;;;;;;5116788;28;20183;-57
2022/03/03 07:15:28;;;;;;;22.73;17.30;;;3.80;99.90;;;;;;5116665;28;20180;-58
2022/03/03 07:18:02;;;;;;;21.80;15.63;;;4.00;99.90;;;;;;5116875;28;20179;-58
2022/03/03 07:20:46;;;;;;;23.20;15.60;;;4.10;99.90;;;;;;5116751;27;20227;-58
2022/03/03 07:23:29;;;;;;;22.13;15.17;;;4.10;99.90;;;;;;5116668;28;20174;-58
2022/03/03 07:26:00;;;;;;;23.97;15.43;;;4.10;99.90;;;;;;5116432;28;20686;-58
2022/03/03 07:28:28;;;;;;;19.53;15.97;;;4.20;99.90;;;;;;5116851;28;20203;-58
2022/03/03 07:30:54;;;;;;;20.03;15.50;;;4.40;99.90;;;;;;5116544;28;20176;-58
2022/03/03 07:33:27;;;;;;;22.23;16.43;;;4.50;99.90;;;;;;5116505;28;20661;-58
2022/03/03 07:35:56;;;;;;;20.53;15.63;;;4.60;99.90;;;;;;5116367;28;20204;-58
2022/03/03 07:38:26;;;;;;;20.63;15.17;;;4.70;99.90;;;;;;5116126;28;20541;-58
2022/03/03 07:40:52;;;;;;;19.40;15.80;;;4.70;99.90;;;;;;5116478;28;20170;-58
2022/03/03 07:43:18;;;;;;;20.37;14.43;;;4.80;99.90;;;;;;5116215;28;20204;-58
2022/03/03 07:45:46;;;;;;;22.03;17.13;;;4.80;99.90;;;;;;5116167;28;20200;-58
2022/03/03 07:48:13;;;;;;;40.17;25.00;;;4.90;99.90;;;;;;5116079;28;20223;-58
2022/03/03 07:50:40;;;;;;;33.23;21.07;;;5.00;99.90;;;;;;5115987;28;20244;-58
2022/03/03 07:53:11;;;;;;;26.13;18.20;;;5.20;99.90;;;;;;5115836;28;20553;-58
2022/03/03 07:55:46;;;;;;;20.73;17.03;;;5.20;99.90;;;;;;5116044;28;20180;-58
2022/03/03 07:58:17;;;;;;;20.67;14.77;;;5.40;99.90;;;;;;5116260;27;20216;-58
2022/03/03 08:00:50;;;;;;;23.70;15.97;;;5.40;99.90;;;;;;5115923;28;20169;-59
2022/03/03 08:03:21;;;;;;;19.23;14.67;;;5.50;99.90;;;;;;5115716;28;20208;-60
2022/03/03 08:05:49;;;;;;;19.43;14.30;;;5.60;99.90;;;;;;5114802;28;20191;-58
2022/03/03 08:08:19;;;;;;;17.20;13.88;;;5.70;99.90;;;;;;5115914;28;20207;-58
2022/03/03 08:10:45;;;;;;;27.00;21.83;;;5.70;99.90;;;;;;5115932;28;20172;-58
2022/03/03 08:13:16;;;;;;;18.80;14.40;;;5.80;99.90;;;;;;5115598;28;20184;-58
2022/03/03 08:15:43;;;;;;;18.58;13.95;;;5.90;99.90;;;;;;5115531;27;20196;-58
2022/03/03 08:18:12;;;;;;;16.23;14.40;;;6.00;99.90;;;;;;5115492;28;20263;-58
2022/03/03 08:20:39;;;;;;;21.75;14.35;;;6.10;99.90;;;;;;5115188;28;20185;-58
2022/03/03 08:23:06;;;;;;;18.48;13.52;;;6.10;99.90;;;;;;5115448;28;20244;-58
2022/03/03 08:25:34;;;;;;;17.43;13.97;;;6.30;99.90;;;;;;5115384;28;20192;-58
2022/03/03 08:28:02;;;;;;;21.00;13.52;;;6.40;99.90;;;;;;5115220;28;20180;-58
2022/03/03 08:30:28;;;;;;;19.33;14.70;;;6.40;99.90;;;;;;5115109;28;20172;-58
2022/03/03 08:33:07;;;;;;;18.65;13.98;;;6.50;99.90;;;;;;5115383;28;20181;-59
2022/03/03 08:35:39;;;;;;;19.15;14.45;;;6.70;99.90;;;;;;5115358;28;20594;-59
2022/03/03 08:38:22;;;;;;;19.02;15.02;;;6.90;99.90;;;;;;5114023;28;20175;-58
2022/03/03 08:40:51;;;;;;;18.73;14.32;;;7.00;99.90;;;;;;5114791;28;20188;-59
2022/03/03 08:43:22;;;;;;;16.92;13.73;;;7.00;99.90;;;;;;5115101;28;20215;-58
2022/03/03 08:45:51;;;;;;;17.65;13.88;;;7.10;99.90;;;;;;5115235;28;20642;-59
2022/03/03 08:48:22;;;;;;;15.73;13.45;;;7.20;99.90;;;;;;5114926;28;20177;-59
2022/03/03 08:50:49;;;;;;;18.20;14.73;;;7.20;99.90;;;;;;5114914;28;20180;-58
2022/03/03 08:53:14;;;;;;;16.83;13.82;;;7.20;99.90;;;;;;5114707;28;20226;-59
2022/03/03 08:55:40;;;;;;;18.77;14.18;;;7.40;99.90;;;;;;5114688;28;20178;-58
2022/03/03 08:58:06;;;;;;;15.07;13.32;;;7.30;99.90;;;;;;5114784;28;20168;-58
2022/03/03 09:00:33;;;;;;;19.88;14.40;;;7.40;99.90;;;;;;5114805;28;20170;-58
2022/03/03 09:02:59;;;;;;;15.45;13.27;;;7.60;99.90;;;;;;5114123;28;20181;-58
2022/03/03 09:05:26;;;;;;;17.25;13.45;;;7.80;99.90;;;;;;5114681;28;20182;-58
2022/03/03 09:07:52;;;;;;;19.52;14.05;;;8.00;99.20;;;;;;5114509;28;20165;-58
2022/03/03 09:10:18;;;;;;;16.75;13.68;;;8.00;98.30;;;;;;5114376;28;20230;-58
2022/03/03 09:12:44;;;;;;;14.55;12.73;;;8.10;99.00;;;;;;5114693;28;20181;-58
2022/03/03 09:15:10;;;;;;;16.35;13.55;;;8.20;98.80;;;;;;5114564;28;20177;-58
2022/03/03 09:17:37;;;;;;;15.73;13.68;;;8.10;98.60;;;;;;5114493;28;20177;-58
2022/03/03 09:20:06;;;;;;;16.33;14.07;;;8.20;98.20;;;;;;5114088;28;20683;-58
2022/03/03 09:22:32;;;;;;;19.52;15.05;;;8.30;98.50;;;;;;5114103;28;20207;-58
2022/03/03 09:24:58;;;;;;;27.70;20.92;;;8.40;97.90;;;;;;5114327;28;20211;-58
2022/03/03 09:27:24;;;;;;;22.13;17.58;;;8.50;96.80;;;;;;5114312;28;20588;-58
2022/03/03 09:29:51;;;;;;;25.52;21.08;;;8.60;97.70;;;;;;5114194;28;20185;-58
2022/03/03 09:32:17;;;;;;;22.30;16.85;;;8.60;97.30;;;;;;5114107;28;20211;-58
2022/03/03 09:34:45;;;;;;;19.35;15.32;;;8.70;96.80;;;;;;5114208;28;20224;-58
2022/03/03 09:37:14;;;;;;;15.90;13.52;;;8.80;97.50;;;;;;5113902;28;20542;-58
2022/03/03 09:39:40;;;;;;;27.45;21.65;;;8.80;95.30;;;;;;5114141;28;20477;-59
2022/03/03 09:42:08;;;;;;;17.98;15.40;;;8.80;95.50;;;;;;5114015;28;20172;-58
2022/03/03 09:44:34;;;;;;;18.73;15.70;;;8.80;95.60;;;;;;5113951;28;20213;-59
2022/03/03 09:47:00;;;;;;;18.52;14.70;;;8.70;95.10;;;;;;5113872;28;20181;-58
2022/03/03 09:49:25;;;;;;;18.35;14.13;;;8.80;96.60;;;;;;5114019;28;20173;-58
2022/03/03 09:51:51;;;;;;;20.10;17.40;;;8.90;97.00;;;;;;5113747;28;20173;-58
2022/03/03 09:54:18;;;;;;;17.55;14.85;;;9.00;97.00;;;;;;5113973;28;20256;-58
2022/03/03 09:56:45;;;;;;;18.70;14.32;;;9.30;96.20;;;;;;5113823;28;20218;-59
2022/03/03 09:59:12;;;;;;;23.83;18.92;;;9.30;95.40;;;;;;5113828;28;20606;-59
2022/03/03 10:01:38;;;;;;;20.70;15.75;;;9.40;95.30;;;;;;5113628;28;20177;-58
2022/03/03 10:04:14;;;;;;;18.67;14.77;;;9.40;95.90;;;;;;5113578;28;20217;-59
2022/03/03 10:06:41;;;;;;;17.13;13.48;;;9.40;97.20;;;;;;5113831;28;20530;-59
2022/03/03 10:09:08;;;;;;;15.95;13.50;;;9.50;95.80;;;;;;5113649;28;20815;-58
2022/03/03 10:11:58;;;;;;;20.73;15.43;;;9.70;96.10;;;;;;5113639;28;20165;-59
2022/03/03 10:14:29;;;;;;;23.92;18.42;;;9.80;96.80;;;;;;5113566;28;20634;-59
2022/03/03 10:16:55;;;;;;;18.65;14.40;;;9.90;94.60;;;;;;5117991;28;20161;-58
2022/03/03 10:19:21;;;;;;;46.90;37.58;;;9.80;94.20;;;;;;5117526;28;20185;-58
2022/03/03 10:21:46;;;;;;;32.13;26.60;;;9.90;95.10;;;;;;5117858;28;20371;-59
2022/03/03 10:24:26;;;;;;;18.45;16.38;;;10.00;96.90;;;;;;5117758;28;20561;-58
2022/03/03 10:27:01;;;;;;;18.58;14.02;;;10.00;95.20;;;;;;5117710;27;20218;-58
2022/03/03 10:29:28;;;;;;;18.05;13.48;;;10.20;94.60;;;;;;5117553;28;20257;-58
2022/03/03 10:31:55;;;;;;;18.75;14.20;;;10.20;95.30;;;;;;5117663;28;20192;-58
2022/03/03 10:34:26;;;;;;;18.85;14.95;;;10.30;94.50;;;;;;5117687;28;20173;-58
2022/03/03 10:37:03;;;;;;;18.52;14.75;;;10.40;94.10;;;;;;5117566;28;20173;-59
2022/03/03 10:39:47;;;;;;;20.98;16.23;;;10.50;94.40;;;;;;5117514;28;20168;-59
2022/03/03 10:42:19;;;;;;;18.40;14.88;;;10.60;94.20;;;;;;5117497;28;20173;-58
2022/03/03 10:44:45;;;;;;;19.20;13.52;;;10.60;93.60;;;;;;5117216;28;20201;-58
2022/03/03 10:47:13;;;;;;;18.15;13.82;;;10.50;93.00;;;;;;5117297;28;20177;-58
2022/03/03 10:49:42;;;;;;;17.38;14.68;;;10.60;94.00;;;;;;5117119;28;20264;-58
2022/03/03 10:52:16;;;;;;;22.52;15.55;;;10.70;93.40;;;;;;5117069;28;20206;-58
2022/03/03 10:54:52;;;;;;;20.17;13.93;;;10.70;94.60;;;;;;5117315;28;20302;-58
2022/03/03 10:57:39;;;;;;;16.80;14.10;;;10.80;94.30;;;;;;5117186;28;20161;-58
2022/03/03 11:00:20;;;;;;;20.38;15.20;;;10.80;94.30;;;;;;5117001;28;20210;-59
2022/03/03 11:02:51;;;;;;;18.08;15.32;;;10.90;96.40;;;;;;5117025;28;20169;-59
2022/03/03 11:05:19;;;;;;;18.50;15.90;;;11.10;94.30;;;;;;5117089;28;20197;-59
2022/03/03 11:07:46;;;;;;;21.17;15.55;;;10.90;94.70;;;;;;5117031;28;20173;-58
2022/03/03 11:10:18;;;;;;;21.75;15.90;;;10.90;94.60;;;;;;5116963;28;20223;-59
2022/03/03 11:12:44;;;;;;;20.35;16.25;;;10.80;95.20;;;;;;5116769;28;20176;-58
2022/03/03 11:15:12;;;;;;;19.05;14.75;;;10.80;95.40;;;;;;5116689;28;20178;-58
2022/03/03 11:17:39;;;;;;;20.83;15.38;;;10.80;95.50;;;;;;5117062;28;20207;-58
2022/03/03 11:20:06;;;;;;;18.95;14.43;;;10.80;95.70;;;;;;5116623;28;20188;-59
2022/03/03 11:22:32;;;;;;;20.15;15.65;;;10.90;95.30;;;;;;5116636;28;20176;-59
2022/03/03 11:25:00;;;;;;;20.08;15.23;;;11.00;95.30;;;;;;5116533;28;20196;-59
2022/03/03 11:27:36;;;;;;;18.55;15.18;;;11.10;95.10;;;;;;5116018;28;20208;-58
2022/03/03 11:30:19;;;;;;;20.05;15.40;;;11.20;95.80;;;;;;5116406;28;20626;-59
2022/03/03 11:32:46;;;;;;;19.58;15.57;;;11.20;92.40;;;;;;5116546;28;20166;-59
2022/03/03 11:35:14;;;;;;;20.45;14.65;;;11.20;93.40;;;;;;5116308;28;20180;-59
2022/03/03 11:37:45;;;;;;;17.83;14.70;;;11.10;94.10;;;;;;5116202;28;20173;-59
2022/03/03 11:40:18;;;;;;;20.02;15.63;;;11.20;93.50;;;;;;5116230;28;20161;-58
2022/03/03 11:42:49;;;;;;;19.30;15.57;;;11.20;93.30;;;;;;5116427;28;20218;-59
2022/03/03 11:45:15;;;;;;;18.23;15.38;;;11.40;95.00;;;;;;5116071;28;20201;-59
2022/03/03 11:47:47;;;;;;;19.70;15.68;;;11.50;94.00;;;;;;5116145;28;20190;-59
2022/03/03 11:50:25;;;;;;;21.35;15.65;;;11.60;94.30;;;;;;5115958;28;20268;-59
2022/03/03 11:52:57;;;;;;;18.60;14.60;;;11.60;92.70;;;;;;5116222;28;20172;-59
2022/03/03 11:55:37;;;;;;;19.63;15.57;;;11.70;93.40;;;;;;5116101;28;20181;-59
2022/03/03 11:58:03;;;;;;;20.45;15.88;;;11.60;93.70;;;;;;5116058;28;20238;-58
2022/03/03 12:00:30;;;;;;;20.42;15.65;;;11.70;94.40;;;;;;5115902;28;20630;-59
2022/03/03 12:03:03;;;;;;;21.17;15.30;;;11.70;93.10;;;;;;5115755;28;20531;-59
2022/03/03 12:05:29;;;;;;;23.73;16.27;;;11.80;94.20;;;;;;5115708;28;20696;-59
2022/03/03 12:08:04;;;;;;;20.88;15.73;;;11.90;93.00;;;;;;5116063;28;20170;-59
2022/03/03 12:10:32;;;;;;;21.33;15.77;;;12.00;92.50;;;;;;5115954;28;20169;-58
2022/03/03 12:13:38;;;;;;;19.05;15.50;;;12.00;92.70;;;;;;5115578;28;20165;-59
2022/03/03 12:16:17;;;;;;;21.58;16.23;;;12.10;94.30;;;;;;5052562;28;20659;-59
2022/03/03 12:18:56;;;;;;;20.73;16.20;;;12.10;93.60;;;;;;5052445;28;20178;-59
2022/03/03 12:21:31;;;;;;;31.00;21.55;;;12.30;93.70;;;;;;5093739;28;20263;-58
2022/03/03 12:24:15;;;;;;;20.58;16.63;;;12.30;94.30;;;;;;5115268;28;20580;-58
2022/03/03 12:26:55;;;;;;;19.40;16.15;;;12.40;94.40;;;;;;5115455;28;20234;-59
2022/03/03 12:29:31;;;;;;;35.55;22.60;;;12.30;92.90;;;;;;5115271;28;20184;-59
2022/03/03 12:31:57;;;;;;;22.30;16.02;;;12.50;93.40;;;;;;5115193;28;20177;-59
2022/03/03 12:34:23;;;;;;;25.52;17.25;;;12.40;92.40;;;;;;5113836;28;20241;-59
2022/03/03 12:36:54;;;;;;;27.13;19.15;;;12.50;93.60;;;;;;5115187;28;20631;-59
2022/03/03 12:39:20;;;;;;;30.40;23.23;;;12.60;94.00;;;;;;5114689;28;20177;-59
2022/03/03 12:41:46;;;;;;;23.33;16.80;;;12.60;93.10;;;;;;5115132;28;20231;-58